Time;durP1;ratioP1;P1;durP2;ratioP2;P2;SDS_P1;SDS_P2;PMS_P1;PMS_P2;Temp;Humidity;BMP_temperature;BMP_pressure;BME280_temperature;BME280_humidity;BME280_pressure;Samples;Min_cycle;Max_cycle;Signal;HPM_P1;HPM_P2
2021/12/18 00:01:06;;;;;;;;;;;7.40;99.90;;;;;;5111860;27;20393;-73
2021/12/18 00:03:32;;;;;;;;;;;7.40;99.90;;;;;;5112035;27;19923;-74
2021/12/18 00:05:57;;;;;;;;;;;7.40;99.90;;;;;;5111352;27;19921;-74
2021/12/18 00:08:23;;;;;;;;;;;7.30;99.90;;;;;;5110419;27;20341;-74
2021/12/18 00:10:48;;;;;;;;;;;7.30;99.90;;;;;;5108225;27;19916;-73
2021/12/18 00:13:14;;;;;;;;;;;7.30;99.90;;;;;;5109388;28;20309;-74
2021/12/18 00:15:40;;;;;;;;;;;7.30;99.90;;;;;;5126848;27;20013;-74
2021/12/18 00:18:05;;;;;;;;;;;7.30;99.90;;;;;;5112049;27;19916;-74
2021/12/18 00:20:31;;;;;;;;;;;7.20;99.90;;;;;;5109443;27;19939;-74
2021/12/18 00:22:56;;;;;;;;;;;7.20;99.90;;;;;;5110735;27;19915;-74
2021/12/18 00:25:22;;;;;;;;;;;7.20;99.90;;;;;;5110007;27;20374;-74
2021/12/18 00:27:48;;;;;;;;;;;7.20;99.90;;;;;;5112367;28;20025;-74
2021/12/18 00:30:14;;;;;;;;;;;7.10;99.90;;;;;;5111436;28;20346;-74
2021/12/18 00:32:39;;;;;;;;;;;7.10;99.90;;;;;;5110366;28;19930;-74
2021/12/18 00:35:05;;;;;;;;;;;7.10;99.90;;;;;;5111255;28;19915;-74
2021/12/18 00:37:30;;;;;;;;;;;7.10;99.90;;;;;;5103069;27;19919;-74
2021/12/18 00:39:59;;;;;;;;;;;7.00;99.90;;;;;;5103362;28;19968;-74
2021/12/18 00:45:03;;;;;;;;;;;7.00;99.90;;;;;;5110584;28;20305;-74
2021/12/18 00:47:29;;;;;;;;;;;6.90;99.90;;;;;;5108803;28;20246;-74
2021/12/18 00:49:54;;;;;;;;;;;6.90;99.90;;;;;;5108857;27;20323;-73
2021/12/18 00:52:20;;;;;;;;;;;6.90;99.90;;;;;;5113220;27;19955;-73
2021/12/18 00:54:45;;;;;;;;;;;6.90;99.90;;;;;;5134220;27;19921;-73
2021/12/18 00:57:11;;;;;;;;;;;6.90;99.90;;;;;;5115158;27;19919;-74
2021/12/18 00:59:36;;;;;;;;;;;6.80;99.90;;;;;;5111849;27;20335;-74
2021/12/18 01:02:02;;;;;;;;;;;6.80;99.90;;;;;;5113380;27;20258;-73
2021/12/18 01:04:28;;;;;;;;;;;6.70;99.90;;;;;;5114420;27;19925;-73
2021/12/18 01:06:53;;;;;;;;;;;6.70;99.90;;;;;;5109598;27;19927;-73
2021/12/18 01:09:25;;;;;;;;;;;6.70;99.90;;;;;;5113414;27;20345;-73
2021/12/18 01:11:51;;;;;;;;;;;6.80;99.90;;;;;;5112287;27;19969;-73
2021/12/18 01:22:38;;;;;;;;;;;6.80;99.90;;;;;;5113712;27;19962;-73
2021/12/18 01:25:04;;;;;;;;;;;6.70;99.90;;;;;;5113769;27;19922;-74
2021/12/18 01:27:29;;;;;;;;;;;6.70;99.90;;;;;;5113947;27;20369;-73
2021/12/18 01:29:54;;;;;;;;;;;6.80;99.90;;;;;;5111747;27;19915;-74
2021/12/18 01:32:20;;;;;;;;;;;6.80;99.90;;;;;;5112832;27;19988;-74
2021/12/18 01:34:46;;;;;;;;;;;6.80;99.90;;;;;;5114114;27;19968;-74
2021/12/18 01:37:12;;;;;;;;;;;6.80;99.90;;;;;;5113202;27;20013;-74
2021/12/18 01:39:37;;;;;;;;;;;6.80;99.90;;;;;;5113262;27;19921;-74
2021/12/18 01:53:00;;;;;;;;;;;6.80;99.90;;;;;;5112116;27;19980;-74
2021/12/18 01:55:28;;;;;;;;;;;6.80;99.90;;;;;;5114383;27;20308;-74
2021/12/18 01:57:53;;;;;;;;;;;6.80;99.90;;;;;;5110438;27;20014;-74
2021/12/18 02:00:22;;;;;;;;;;;6.80;99.90;;;;;;5111975;27;19994;-74
2021/12/18 02:02:47;;;;;;;;;;;6.80;99.90;;;;;;5114016;27;19915;-74
2021/12/18 02:05:13;;;;;;;;;;;6.80;99.90;;;;;;5111095;27;20008;-74
2021/12/18 02:07:39;;;;;;;;;;;6.80;99.90;;;;;;5114699;27;19923;-73
2021/12/18 02:10:14;;;;;;;;;;;6.80;99.90;;;;;;5096809;27;20023;-71
2021/12/18 02:12:49;;;;;;;;;;;6.80;99.90;;;;;;5114880;27;19972;-71
2021/12/18 02:20:45;;;;;;;;;;;6.80;99.90;;;;;;5113517;27;19922;-74
2021/12/18 02:23:10;;;;;;;;;;;6.70;99.90;;;;;;5114408;27;19919;-74
2021/12/18 02:25:37;;;;;;;;;;;6.70;99.90;;;;;;5114580;27;19968;-74
2021/12/18 02:28:06;;;;;;;;;;;6.70;99.90;;;;;;5114059;27;19919;-74
2021/12/18 02:30:32;;;;;;;;;;;6.60;99.90;;;;;;5124411;27;19922;-74
2021/12/18 02:32:58;;;;;;;;;;;6.60;99.90;;;;;;5114051;27;19944;-74
2021/12/18 02:35:28;;;;;;;;;;;6.60;99.90;;;;;;5113621;27;20043;-74
2021/12/18 02:38:07;;;;;;;;;;;6.60;99.90;;;;;;5113500;27;19915;-73
2021/12/18 02:40:54;;;;;;;;;;;6.60;99.90;;;;;;5113074;27;19915;-74
2021/12/18 02:43:27;;;;;;;;;;;6.60;99.90;;;;;;5112685;27;19921;-74
2021/12/18 02:45:55;;;;;;;;;;;6.60;99.90;;;;;;5130677;27;19919;-74
2021/12/18 02:48:21;;;;;;;;;;;6.60;99.90;;;;;;5096993;27;19980;-74
2021/12/18 02:50:47;;;;;;;;;;;6.60;99.90;;;;;;5111955;27;19927;-73
2021/12/18 02:53:12;;;;;;;;;;;6.60;99.90;;;;;;5113550;27;20034;-73
2021/12/18 02:55:38;;;;;;;;;;;6.60;99.90;;;;;;5094614;27;19923;-73
2021/12/18 02:58:03;;;;;;;;;;;6.70;99.90;;;;;;5107727;27;19980;-71
2021/12/18 03:00:29;;;;;;;;;;;6.60;99.90;;;;;;5110372;27;19919;-69
2021/12/18 03:02:55;;;;;;;;;;;6.60;99.90;;;;;;5110008;27;20386;-72
2021/12/18 03:05:28;;;;;;;;;;;6.60;99.90;;;;;;5109359;27;19919;-73
2021/12/18 03:08:01;;;;;;;;;;;6.60;99.90;;;;;;5111372;27;19922;-72
2021/12/18 03:21:55;;;;;;;;;;;6.60;99.90;;;;;;5112798;27;19922;-71
2021/12/18 03:24:29;;;;;;;;;;;6.60;99.90;;;;;;5110703;27;20519;-69
2021/12/18 03:26:54;;;;;;;;;;;6.50;99.90;;;;;;5103006;27;19916;-70
2021/12/18 03:29:20;;;;;;;;;;;6.50;99.90;;;;;;5107216;27;19926;-69
2021/12/18 03:31:45;;;;;;;;;;;6.40;99.90;;;;;;5112719;27;19972;-71
2021/12/18 03:34:11;;;;;;;;;;;6.30;99.90;;;;;;5107108;27;19923;-72
2021/12/18 03:36:36;;;;;;;;;;;6.20;99.90;;;;;;5108843;27;19937;-71
2021/12/18 03:39:03;;;;;;;;;;;6.20;99.90;;;;;;5112864;27;19923;-71
2021/12/18 03:41:28;;;;;;;;;;;6.20;99.90;;;;;;5113072;27;19958;-72
2021/12/18 03:43:54;;;;;;;;;;;6.20;99.90;;;;;;5110101;27;19969;-71
2021/12/18 03:46:19;;;;;;;;;;;6.20;99.90;;;;;;5113808;27;20405;-73
2021/12/18 03:48:45;;;;;;;;;;;6.20;99.90;;;;;;5102437;27;20349;-73
2021/12/18 03:51:10;;;;;;;;;;;6.10;99.90;;;;;;5109043;27;19930;-72
2021/12/18 03:53:36;;;;;;;;;;;6.20;99.90;;;;;;5094872;27;19927;-72
2021/12/18 03:56:02;;;;;;;;;;;6.10;99.90;;;;;;5127195;27;19958;-71
2021/12/18 03:58:28;;;;;;;;;;;6.10;99.90;;;;;;5113336;27;20701;-72
2021/12/18 04:00:53;;;;;;;;;;;6.10;99.90;;;;;;5103725;27;19915;-72
2021/12/18 04:03:19;;;;;;;;;;;6.10;99.90;;;;;;5114207;27;19979;-73
2021/12/18 04:05:44;;;;;;;;;;;6.10;99.90;;;;;;5102223;27;19982;-73
2021/12/18 04:08:10;;;;;;;;;;;6.10;99.90;;;;;;5097204;27;19919;-71
2021/12/18 04:10:39;;;;;;;;;;;6.10;99.90;;;;;;5111173;27;19984;-72
2021/12/18 04:13:05;;;;;;;;;;;6.10;99.90;;;;;;5112435;27;19988;-72
2021/12/18 04:15:31;;;;;;;;;;;6.10;99.90;;;;;;5094939;27;19962;-70
2021/12/18 04:17:56;;;;;;;;;;;6.10;99.90;;;;;;5100802;27;19963;-72
2021/12/18 04:20:23;;;;;;;;;;;6.10;99.90;;;;;;5096353;27;19919;-70
2021/12/18 04:22:49;;;;;;;;;;;6.10;99.90;;;;;;5108168;27;19916;-69
2021/12/18 04:25:14;;;;;;;;;;;6.10;99.90;;;;;;5104823;27;19998;-72
2021/12/18 04:27:40;;;;;;;;;;;6.10;99.90;;;;;;5111177;27;19927;-72
2021/12/18 04:30:06;;;;;;;;;;;6.10;99.90;;;;;;5096253;28;19964;-72
2021/12/18 04:32:31;;;;;;;;;;;6.10;99.90;;;;;;5112387;28;19930;-71
2021/12/18 04:34:56;;;;;;;;;;;6.10;99.90;;;;;;5112927;28;19915;-72
2021/12/18 04:37:23;;;;;;;;;;;6.10;99.90;;;;;;5108224;28;19919;-72
2021/12/18 04:39:49;;;;;;;;;;;6.10;99.90;;;;;;5112507;28;19915;-71
2021/12/18 04:42:14;;;;;;;;;;;6.10;99.90;;;;;;5110234;28;20177;-71
2021/12/18 04:44:40;;;;;;;;;;;6.10;99.90;;;;;;5113361;28;20430;-72
2021/12/18 04:47:05;;;;;;;;;;;6.10;99.90;;;;;;5112554;28;19977;-72
2021/12/18 04:49:31;;;;;;;;;;;6.10;99.90;;;;;;5096407;28;20349;-72
2021/12/18 04:51:56;;;;;;;;;;;6.10;99.90;;;;;;5110891;28;19920;-72
2021/12/18 04:54:22;;;;;;;;;;;6.10;99.90;;;;;;5113317;28;20321;-71
2021/12/18 04:56:47;;;;;;;;;;;6.10;99.90;;;;;;5108380;27;20031;-71
2021/12/18 04:59:13;;;;;;;;;;;6.10;99.90;;;;;;5112172;28;19915;-73
2021/12/18 05:01:40;;;;;;;;;;;6.10;99.90;;;;;;5113063;28;19922;-72
2021/12/18 05:04:09;;;;;;;;;;;6.10;99.90;;;;;;5102028;27;19926;-70
2021/12/18 05:06:36;;;;;;;;;;;6.10;99.90;;;;;;5111627;28;19915;-67
2021/12/18 05:09:02;;;;;;;;;;;6.10;99.90;;;;;;5112336;28;19919;-69
2021/12/18 05:11:28;;;;;;;;;;;6.00;99.90;;;;;;5105494;27;19916;-70
2021/12/18 05:13:53;;;;;;;;;;;6.00;99.90;;;;;;5108896;28;19929;-71
2021/12/18 05:16:19;;;;;;;;;;;6.00;99.90;;;;;;5110696;28;20337;-68
2021/12/18 05:18:44;;;;;;;;;;;6.00;99.90;;;;;;5101926;28;19922;-69
2021/12/18 05:21:10;;;;;;;;;;;6.00;99.90;;;;;;5106695;28;19923;-70
2021/12/18 05:23:35;;;;;;;;;;;6.00;99.90;;;;;;5113446;28;19962;-72
2021/12/18 05:26:01;;;;;;;;;;;6.00;99.90;;;;;;5089059;28;19959;-73
2021/12/18 05:28:26;;;;;;;;;;;6.00;99.90;;;;;;5095725;28;19919;-70
2021/12/18 05:30:52;;;;;;;;;;;6.00;99.90;;;;;;5112360;28;19926;-72
2021/12/18 05:33:17;;;;;;;;;;;6.00;99.90;;;;;;5096378;28;19925;-73
2021/12/18 05:35:43;;;;;;;;;;;6.00;99.90;;;;;;5109423;27;19923;-74
2021/12/18 05:38:08;;;;;;;;;;;5.90;99.90;;;;;;5101481;27;19915;-74
2021/12/18 05:40:34;;;;;;;;;;;5.90;99.90;;;;;;5116576;27;19964;-73
2021/12/18 05:43:00;;;;;;;;;;;5.90;99.90;;;;;;5116684;27;19923;-73
2021/12/18 05:45:26;;;;;;;;;;;5.90;99.90;;;;;;5099055;27;20282;-73
2021/12/18 05:47:51;;;;;;;;;;;5.90;99.90;;;;;;5116848;27;19926;-72
2021/12/18 05:50:17;;;;;;;;;;;5.80;99.90;;;;;;5111655;27;19963;-73
2021/12/18 05:52:45;;;;;;;;;;;5.90;99.90;;;;;;5100025;27;19928;-72
2021/12/18 05:55:11;;;;;;;;;;;5.90;99.90;;;;;;5133459;27;19919;-73
2021/12/18 05:57:37;;;;;;;;;;;5.90;99.90;;;;;;5116442;27;20278;-70
2021/12/18 06:00:06;;;;;;;;;;;5.90;99.90;;;;;;5109205;27;19919;-73
2021/12/18 06:02:32;;;;;;;;;;;5.90;99.90;;;;;;5115371;27;20314;-72
2021/12/18 06:04:57;;;;;;;;;;;5.90;99.90;;;;;;5116147;27;20013;-73
2021/12/18 06:07:31;;;;;;;;;;;5.90;99.90;;;;;;5116299;27;19920;-72
2021/12/18 06:09:57;;;;;;;;;;;5.90;99.90;;;;;;5115818;27;20047;-72
2021/12/18 06:12:23;;;;;;;;;;;5.90;99.90;;;;;;5115885;27;20014;-73
2021/12/18 06:14:49;;;;;;;;;;;5.90;99.90;;;;;;5116149;27;20438;-72
2021/12/18 06:17:14;;;;;;;;;;;5.90;99.90;;;;;;5098288;28;19915;-73
2021/12/18 06:19:40;;;;;;;;;;;5.90;99.90;;;;;;5109974;27;19973;-73
2021/12/18 06:22:05;;;;;;;;;;;5.90;99.90;;;;;;5104674;28;19926;-73
2021/12/18 06:24:30;;;;;;;;;;;5.90;99.90;;;;;;5111237;27;19923;-73
2021/12/18 06:26:56;;;;;;;;;;;5.90;99.90;;;;;;5107913;27;19919;-73
2021/12/18 06:29:22;;;;;;;;;;;5.80;99.90;;;;;;5115738;27;19915;-74
2021/12/18 06:31:47;;;;;;;;;;;5.80;99.90;;;;;;5110950;28;19916;-74
2021/12/18 06:34:13;;;;;;;;;;;5.80;99.90;;;;;;5112753;28;20281;-74
2021/12/18 06:36:39;;;;;;;;;;;5.80;99.90;;;;;;5102942;27;19916;-73
2021/12/18 06:39:05;;;;;;;;;;;5.80;99.90;;;;;;5106682;27;19924;-74
2021/12/18 06:41:30;;;;;;;;;;;5.80;99.90;;;;;;5116137;27;20405;-74
2021/12/18 06:43:56;;;;;;;;;;;5.80;99.90;;;;;;5103505;27;19959;-74
2021/12/18 06:46:21;;;;;;;;;;;5.80;99.90;;;;;;5103028;27;19915;-74
2021/12/18 06:48:47;;;;;;;;;;;5.80;99.90;;;;;;5097234;27;20372;-74
2021/12/18 06:51:12;;;;;;;;;;;5.80;99.90;;;;;;5115351;27;20386;-74
2021/12/18 06:53:38;;;;;;;;;;;5.80;99.90;;;;;;5115361;27;19969;-74
2021/12/18 06:56:04;;;;;;;;;;;5.80;99.90;;;;;;5115796;27;19915;-74
2021/12/18 06:58:29;;;;;;;;;;;5.80;99.90;;;;;;5115517;27;19923;-73
2021/12/18 07:00:55;;;;;;;;;;;5.80;99.90;;;;;;5114207;27;19922;-74
2021/12/18 07:03:21;;;;;;;;;;;5.80;99.90;;;;;;5117073;27;19967;-74
2021/12/18 07:05:47;;;;;;;;;;;5.80;99.90;;;;;;5115512;27;20315;-74
2021/12/18 07:08:12;;;;;;;;;;;5.80;99.90;;;;;;5115131;27;19919;-74
2021/12/18 07:10:37;;;;;;;;;;;5.90;99.90;;;;;;5114863;27;19915;-74
2021/12/18 07:13:03;;;;;;;;;;;5.90;99.90;;;;;;5115042;27;19919;-73
2021/12/18 07:15:28;;;;;;;;;;;5.90;99.90;;;;;;5115462;27;19922;-73
2021/12/18 07:17:54;;;;;;;;;;;5.90;99.90;;;;;;5115350;27;19926;-74
2021/12/18 07:20:19;;;;;;;;;;;5.90;99.90;;;;;;5114426;27;19994;-73
2021/12/18 07:22:45;;;;;;;;;;;5.90;99.90;;;;;;5093600;28;19916;-74
2021/12/18 07:25:11;;;;;;;;;;;6.00;99.90;;;;;;5113102;27;19923;-74
2021/12/18 07:27:36;;;;;;;;;;;6.00;99.90;;;;;;5098218;27;19941;-73
2021/12/18 07:30:03;;;;;;;;;;;6.00;99.90;;;;;;5114421;27;19916;-73
2021/12/18 07:32:29;;;;;;;;;;;6.00;99.90;;;;;;5114586;27;19930;-74
2021/12/18 07:34:56;;;;;;;;;;;6.00;99.90;;;;;;5114478;27;20295;-73
2021/12/18 07:37:23;;;;;;;;;;;6.00;99.90;;;;;;5113410;27;19919;-74
2021/12/18 07:39:50;;;;;;;;;;;6.00;99.90;;;;;;5113251;27;20289;-73
2021/12/18 07:42:15;;;;;;;;;;;6.00;99.90;;;;;;5096462;27;19922;-74
2021/12/18 07:44:42;;;;;;;;;;;6.00;99.90;;;;;;5114115;27;20369;-73
2021/12/18 07:47:07;;;;;;;;;;;6.10;99.90;;;;;;5114097;27;19919;-74
2021/12/18 07:49:33;;;;;;;;;;;6.10;99.90;;;;;;5113622;27;19975;-74
2021/12/18 07:52:02;;;;;;;;;;;6.10;99.90;;;;;;5113168;27;19926;-73
2021/12/18 07:54:27;;;;;;;;;;;6.10;99.90;;;;;;5114299;27;19919;-74
2021/12/18 07:56:53;;;;;;;;;;;6.10;99.90;;;;;;5114522;27;19922;-73
2021/12/18 07:59:19;;;;;;;;;;;6.10;99.90;;;;;;5108574;27;19923;-73
2021/12/18 08:01:44;;;;;;;;;;;6.20;99.90;;;;;;5112503;27;19916;-74
2021/12/18 08:04:10;;;;;;;;;;;6.20;99.90;;;;;;5112937;27;19977;-73
2021/12/18 08:06:35;;;;;;;;;;;6.20;99.90;;;;;;5106563;27;20437;-73
2021/12/18 08:09:00;;;;;;;;;;;6.20;99.90;;;;;;5112002;27;19923;-74
2021/12/18 08:11:26;;;;;;;;;;;6.20;99.90;;;;;;5113135;27;20517;-74
2021/12/18 08:13:51;;;;;;;;;;;6.20;99.90;;;;;;5108389;27;19926;-74
2021/12/18 08:16:17;;;;;;;;;;;6.20;99.90;;;;;;5113018;27;19919;-73
2021/12/18 08:18:42;;;;;;;;;;;6.30;99.90;;;;;;5113285;27;19922;-73
2021/12/18 08:21:08;;;;;;;;;;;6.30;99.90;;;;;;5113696;27;19923;-74
2021/12/18 08:23:33;;;;;;;;;;;6.30;99.90;;;;;;5095926;27;20365;-74
2021/12/18 08:25:59;;;;;;;;;;;6.30;99.90;;;;;;5094078;27;19915;-73
2021/12/18 08:28:24;;;;;;;;;;;6.40;99.90;;;;;;5111635;27;19955;-73
2021/12/18 08:30:50;;;;;;;;;;;6.40;99.90;;;;;;5110201;28;20363;-74
2021/12/18 08:33:15;;;;;;;;;;;6.40;99.90;;;;;;5112041;28;19926;-73
2021/12/18 08:35:40;;;;;;;;;;;6.40;99.90;;;;;;5110724;28;19919;-73
2021/12/18 08:38:06;;;;;;;;;;;6.40;99.90;;;;;;5112215;28;19915;-73
2021/12/18 08:40:32;;;;;;;;;;;6.50;99.90;;;;;;5112136;28;19915;-74
2021/12/18 08:42:57;;;;;;;;;;;6.50;99.90;;;;;;5113873;28;19915;-73
2021/12/18 08:45:23;;;;;;;;;;;6.50;99.90;;;;;;5102816;28;19926;-74
2021/12/18 08:47:48;;;;;;;;;;;6.50;99.90;;;;;;5113236;28;19926;-73
2021/12/18 08:50:18;;;;;;;;;;;6.50;99.90;;;;;;5104064;28;19930;-73
2021/12/18 08:52:48;;;;;;;;;;;6.50;99.90;;;;;;5100628;27;19923;-73
2021/12/18 08:55:14;;;;;;;;;;;6.50;99.90;;;;;;5107508;27;20354;-73
2021/12/18 08:57:39;;;;;;;;;;;6.50;99.90;;;;;;5110528;28;19923;-73
2021/12/18 09:00:06;;;;;;;;;;;6.50;99.90;;;;;;5111791;28;19927;-73
2021/12/18 09:02:31;;;;;;;;;;;6.50;99.90;;;;;;5111290;28;19926;-73
2021/12/18 09:04:57;;;;;;;;;;;6.60;99.90;;;;;;5111098;28;20006;-73
2021/12/18 09:07:25;;;;;;;;;;;6.60;99.90;;;;;;5111417;28;20105;-72
2021/12/18 09:09:51;;;;;;;;;;;6.60;99.90;;;;;;5103637;28;19938;-73
2021/12/18 09:12:16;;;;;;;;;;;6.70;99.90;;;;;;5098269;27;19919;-72
2021/12/18 09:14:42;;;;;;;;;;;6.70;99.90;;;;;;5097223;27;19977;-73
2021/12/18 09:17:08;;;;;;;;;;;6.70;99.90;;;;;;5108522;27;19915;-73
2021/12/18 09:19:33;;;;;;;;;;;6.80;99.90;;;;;;5105065;27;19960;-73
2021/12/18 09:21:59;;;;;;;;;;;6.80;99.90;;;;;;5078126;27;19942;-73
2021/12/18 09:24:25;;;;;;;;;;;6.80;99.90;;;;;;5110731;27;20472;-73
2021/12/18 09:26:51;;;;;;;;;;;6.90;99.90;;;;;;5112915;27;19934;-73
2021/12/18 09:29:18;;;;;;;;;;;6.90;99.90;;;;;;5114414;27;20025;-72
2021/12/18 09:31:44;;;;;;;;;;;6.90;99.90;;;;;;5116025;27;19958;-73
2021/12/18 09:34:09;;;;;;;;;;;6.90;99.90;;;;;;5116118;27;19954;-73
2021/12/18 09:36:35;;;;;;;;;;;7.00;99.90;;;;;;5097378;27;19922;-72
2021/12/18 09:39:00;;;;;;;;;;;7.00;99.90;;;;;;5097192;27;19969;-73
2021/12/18 09:41:26;;;;;;;;;;;7.00;99.90;;;;;;5114621;27;19915;-72
2021/12/18 09:43:51;;;;;;;;;;;7.10;99.90;;;;;;5114870;27;19949;-73
2021/12/18 09:46:17;;;;;;;;;;;7.10;99.90;;;;;;5113961;27;19915;-72
2021/12/18 09:48:44;;;;;;;;;;;7.10;99.90;;;;;;5106820;27;19937;-73
2021/12/18 09:51:18;;;;;;;;;;;7.10;99.90;;;;;;5126858;27;19929;-73
2021/12/18 09:53:44;;;;;;;;;;;7.10;99.90;;;;;;5105414;27;20045;-73
2021/12/18 09:56:09;;;;;;;;;;;7.10;99.90;;;;;;5095632;27;20326;-73
2021/12/18 09:58:35;;;;;;;;;;;7.20;99.90;;;;;;5100324;27;19919;-73
2021/12/18 10:01:00;;;;;;;;;;;7.20;99.90;;;;;;5112922;27;19919;-73
2021/12/18 10:03:44;;;;;;;;;;;7.20;99.90;;;;;;5116331;27;19937;-73
2021/12/18 10:06:27;;;;;;;;;;;7.20;99.90;;;;;;5114434;27;20013;-73
2021/12/18 10:08:52;;;;;;;;;;;7.30;99.90;;;;;;5114995;27;19919;-73
2021/12/18 10:11:18;;;;;;;;;;;7.30;99.90;;;;;;5111802;27;20227;-73
2021/12/18 10:13:54;;;;;;;;;;;7.40;99.90;;;;;;5109114;27;19920;-73
2021/12/18 10:16:20;;;;;;;;;;;7.40;99.90;;;;;;5103891;27;20036;-73
2021/12/18 10:18:46;;;;;;;;;;;7.50;99.90;;;;;;5111619;27;20018;-73
2021/12/18 10:21:16;;;;;;;;;;;7.50;99.90;;;;;;5114018;27;20316;-73
2021/12/18 10:23:42;;;;;;;;;;;7.60;99.90;;;;;;5110380;27;20446;-73
2021/12/18 10:26:27;;;;;;;;;;;7.60;99.90;;;;;;5112093;27;20444;-73
2021/12/18 10:28:52;;;;;;;;;;;7.60;99.90;;;;;;5112258;27;19925;-73
2021/12/18 10:31:36;;;;;;;;;;;7.70;99.90;;;;;;5111408;27;19924;-73
2021/12/18 10:34:20;;;;;;;;;;;7.80;99.90;;;;;;5110619;27;19980;-72
2021/12/18 10:37:05;;;;;;;;;;;7.80;99.90;;;;;;5110648;27;19966;-73
2021/12/18 10:39:30;;;;;;;;;;;7.90;99.90;;;;;;5110322;27;19919;-74
2021/12/18 10:41:56;;;;;;;;;;;7.90;99.90;;;;;;5112110;27;19968;-73
2021/12/18 10:44:21;;;;;;;;;;;8.00;99.90;;;;;;5112472;27;19926;-73
2021/12/18 10:46:52;;;;;;;;;;;8.00;99.90;;;;;;5112590;27;19964;-73
2021/12/18 10:49:18;;;;;;;;;;;8.10;99.90;;;;;;5103431;27;19923;-73
2021/12/18 10:51:45;;;;;;;;;;;8.10;99.90;;;;;;5109530;27;19922;-72
2021/12/18 10:54:18;;;;;;;;;;;8.10;99.90;;;;;;5112347;27;19919;-73
2021/12/18 10:56:46;;;;;;;;;;;8.10;99.90;;;;;;5094282;27;19923;-73
2021/12/18 10:59:20;;;;;;;;;;;8.10;99.90;;;;;;5111185;27;20440;-73
2021/12/18 11:01:53;;;;;;;;;;;8.20;99.90;;;;;;5108355;27;19934;-73
2021/12/18 11:04:23;;;;;;;;;;;8.20;99.90;;;;;;5111684;27;19960;-73
2021/12/18 11:06:49;;;;;;;;;;;8.20;99.90;;;;;;5111763;27;20002;-73
2021/12/18 11:09:17;;;;;;;;;;;8.30;99.90;;;;;;5111564;27;19919;-72
2021/12/18 11:14:11;;;;;;;;;;;8.30;99.90;;;;;;5107922;27;19915;-73
2021/12/18 11:16:37;;;;;;;;;;;8.40;99.90;;;;;;5111337;27;19922;-72
2021/12/18 11:19:04;;;;;;;;;;;8.40;99.90;;;;;;5105897;27;19919;-71
2021/12/18 11:21:30;;;;;;;;;;;8.50;99.90;;;;;;5111724;27;19915;-72
2021/12/18 11:24:06;;;;;;;;;;;8.40;99.90;;;;;;5111996;27;20308;-71
2021/12/18 11:26:35;;;;;;;;;;;8.50;99.90;;;;;;5095007;27;19920;-70
2021/12/18 11:29:03;;;;;;;;;;;8.50;99.90;;;;;;5110479;27;19919;-70
2021/12/18 11:31:28;;;;;;;;;;;8.60;99.90;;;;;;5112190;27;19915;-73
2021/12/18 11:33:54;;;;;;;;;;;8.60;99.90;;;;;;5108909;27;20373;-73
2021/12/18 11:36:20;;;;;;;;;;;8.60;99.90;;;;;;5106630;27;19919;-73
2021/12/18 11:38:46;;;;;;;;;;;8.60;99.90;;;;;;5110884;27;19915;-72
2021/12/18 11:41:13;;;;;;;;;;;8.70;99.90;;;;;;5106796;27;19915;-72
2021/12/18 11:43:41;;;;;;;;;;;8.70;99.90;;;;;;5097198;27;19919;-70
2021/12/18 11:46:26;;;;;;;;;;;8.70;99.90;;;;;;5110515;27;19923;-72
2021/12/18 11:48:53;;;;;;;;;;;8.70;99.90;;;;;;5107638;27;19977;-71
2021/12/18 11:51:18;;;;;;;;;;;8.70;99.90;;;;;;5108084;27;20002;-73
2021/12/18 11:53:44;;;;;;;;;;;8.70;99.90;;;;;;5102117;27;19998;-73
2021/12/18 11:56:09;;;;;;;;;;;8.70;99.90;;;;;;5106851;27;20586;-73
2021/12/18 11:58:41;;;;;;;;;;;8.70;99.90;;;;;;5108456;27;19937;-73
2021/12/18 12:01:14;;;;;;;;;;;8.70;99.90;;;;;;5103430;27;20446;-73
2021/12/18 12:03:43;;;;;;;;;;;8.70;99.90;;;;;;5094476;27;20015;-73
2021/12/18 12:06:24;;;;;;;;;;;8.70;99.90;;;;;;5100596;27;20389;-73
2021/12/18 12:09:09;;;;;;;;;;;8.70;99.90;;;;;;5111151;27;20306;-73
2021/12/18 12:11:48;;;;;;;;;;;8.70;99.90;;;;;;5107324;27;19921;-72
2021/12/18 12:14:13;;;;;;;;;;;8.60;99.90;;;;;;5110339;28;19968;-73
2021/12/18 12:16:45;;;;;;;;;;;8.70;99.90;;;;;;5111633;27;19958;-68
2021/12/18 12:19:14;;;;;;;;;;;8.70;99.90;;;;;;5112341;28;19916;-70
2021/12/18 12:21:44;;;;;;;;;;;8.70;99.90;;;;;;5111422;27;19933;-69
2021/12/18 12:24:10;;;;;;;;;;;8.70;99.90;;;;;;5111303;27;20018;-70
2021/12/18 12:26:36;;;;;;;;;;;8.70;99.90;;;;;;5111866;27;19968;-70
2021/12/18 12:29:02;;;;;;;;;;;8.60;99.90;;;;;;5125631;27;20057;-70
2021/12/18 12:31:28;;;;;;;;;;;8.60;99.90;;;;;;5129072;27;19916;-70
2021/12/18 12:34:13;;;;;;;;;;;8.70;99.90;;;;;;5109677;28;19920;-72
2021/12/18 12:36:45;;;;;;;;;;;8.70;99.90;;;;;;5112550;28;20013;-72
2021/12/18 12:39:11;;;;;;;;;;;8.70;99.90;;;;;;5111963;28;19918;-71
2021/12/18 12:41:41;;;;;;;;;;;8.60;99.90;;;;;;5111163;28;20286;-71
2021/12/18 12:44:28;;;;;;;;;;;8.70;99.90;;;;;;5109817;28;20022;-73
2021/12/18 12:47:12;;;;;;;;;;;8.70;99.90;;;;;;5108441;27;20353;-71
2021/12/18 12:49:38;;;;;;;;;;;8.70;99.90;;;;;;5115185;27;19923;-70
2021/12/18 12:52:04;;;;;;;;;;;8.70;99.90;;;;;;5116091;27;19919;-72
2021/12/18 12:54:43;;;;;;;;;;;8.70;99.90;;;;;;5115630;27;19930;-71
2021/12/18 12:57:21;;;;;;;;;;;8.70;99.90;;;;;;5108323;27;20416;-72
2021/12/18 12:59:46;;;;;;;;;;;8.70;99.90;;;;;;5114580;27;20417;-73
2021/12/18 13:02:12;;;;;;;;;;;8.70;99.90;;;;;;5112779;27;19923;-72
2021/12/18 13:04:37;;;;;;;;;;;8.70;99.90;;;;;;5115866;27;19922;-72
2021/12/18 13:07:06;;;;;;;;;;;8.70;99.90;;;;;;5107869;27;19915;-72
2021/12/18 13:09:42;;;;;;;;;;;8.70;99.90;;;;;;5110281;27;19919;-72
2021/12/18 13:12:08;;;;;;;;;;;8.70;99.90;;;;;;5115834;27;19954;-72
2021/12/18 13:14:43;;;;;;;;;;;8.70;99.90;;;;;;5114842;27;19954;-73
2021/12/18 13:17:22;;;;;;;;;;;8.70;99.90;;;;;;5112587;27;19926;-72
2021/12/18 13:19:53;;;;;;;;;;;8.70;99.90;;;;;;5114240;27;20381;-72
2021/12/18 13:22:21;;;;;;;;;;;8.70;99.90;;;;;;5114302;27;19915;-72
2021/12/18 13:25:05;;;;;;;;;;;8.70;99.90;;;;;;5113232;27;19970;-72
2021/12/18 13:27:31;;;;;;;;;;;8.70;99.90;;;;;;5113910;27;19946;-72
2021/12/18 13:30:16;;;;;;;;;;;8.70;99.90;;;;;;5121097;27;19931;-71
2021/12/18 13:33:08;;;;;;;;;;;8.70;99.90;;;;;;5113722;27;19923;-71
2021/12/18 13:35:34;;;;;;;;;;;8.70;99.90;;;;;;5125503;27;20289;-72
2021/12/18 13:38:04;;;;;;;;;;;8.70;99.90;;;;;;5113067;27;20062;-72
2021/12/18 13:40:32;;;;;;;;;;;8.70;99.90;;;;;;5109043;27;19959;-73
2021/12/18 13:43:03;;;;;;;;;;;8.70;99.90;;;;;;5095642;27;19930;-72
2021/12/18 13:45:28;;;;;;;;;;;8.70;99.90;;;;;;5112262;27;19923;-72
2021/12/18 13:47:54;;;;;;;;;;;8.60;99.90;;;;;;5115699;27;19920;-71
2021/12/18 13:50:21;;;;;;;;;;;8.70;99.90;;;;;;5114012;27;20018;-72
2021/12/18 13:52:48;;;;;;;;;;;8.70;99.90;;;;;;5114380;27;19919;-73
2021/12/18 13:55:33;;;;;;;;;;;8.70;99.90;;;;;;5098251;27;19929;-72
2021/12/18 13:58:06;;;;;;;;;;;8.70;99.90;;;;;;5111580;27;19919;-73
2021/12/18 14:00:44;;;;;;;;;;;8.70;99.90;;;;;;5109764;27;19919;-72
2021/12/18 14:03:16;;;;;;;;;;;8.70;99.90;;;;;;5111780;27;19915;-73
2021/12/18 14:05:41;;;;;;;;;;;8.70;99.90;;;;;;5114248;27;19919;-72
2021/12/18 14:08:07;;;;;;;;;;;8.70;99.90;;;;;;5112630;27;20286;-72
2021/12/18 14:10:33;;;;;;;;;;;8.70;99.90;;;;;;5113490;27;19965;-71
2021/12/18 14:13:00;;;;;;;;;;;8.70;99.90;;;;;;5112467;27;19919;-71
2021/12/18 14:15:25;;;;;;;;;;;8.70;99.90;;;;;;5113779;27;19955;-72
2021/12/18 14:17:51;;;;;;;;;;;8.70;99.90;;;;;;5114040;27;19970;-72
2021/12/18 14:20:16;;;;;;;;;;;8.70;99.90;;;;;;5113268;27;20289;-68
2021/12/18 14:22:42;;;;;;;;;;;8.70;99.90;;;;;;5113424;27;19915;-70
2021/12/18 14:25:09;;;;;;;;;;;8.70;99.90;;;;;;5115833;27;20257;-71
2021/12/18 14:27:37;;;;;;;;;;;8.60;99.90;;;;;;5114807;27;20010;-72
2021/12/18 14:30:03;;;;;;;;;;;8.60;99.90;;;;;;5113088;27;19974;-72
2021/12/18 14:32:28;;;;;;;;;;;8.60;99.90;;;;;;5113934;27;19950;-71
2021/12/18 14:35:01;;;;;;;;;;;8.60;99.90;;;;;;5109766;27;19916;-72
2021/12/18 14:37:27;;;;;;;;;;;8.50;99.90;;;;;;5113360;27;19950;-71
2021/12/18 14:39:54;;;;;;;;;;;8.50;99.90;;;;;;5100587;27;19986;-71
2021/12/18 14:42:29;;;;;;;;;;;8.50;99.90;;;;;;5084813;27;19961;-71
2021/12/18 14:45:02;;;;;;;;;;;8.60;99.90;;;;;;5099343;27;19970;-72
2021/12/18 14:47:30;;;;;;;;;;;8.60;99.90;;;;;;5098251;27;19927;-70
2021/12/18 14:50:01;;;;;;;;;;;8.60;99.90;;;;;;5097679;27;19966;-71
2021/12/18 14:52:28;;;;;;;;;;;8.60;99.90;;;;;;5103829;27;19966;-71
2021/12/18 14:54:55;;;;;;;;;;;8.60;99.90;;;;;;5113656;27;20014;-72
2021/12/18 14:57:25;;;;;;;;;;;8.60;99.90;;;;;;5080527;28;19977;-72
2021/12/18 15:00:11;;;;;;;;;;;8.60;99.90;;;;;;5083561;27;19976;-72
2021/12/18 15:03:01;;;;;;;;;;;8.50;99.90;;;;;;5088664;27;19941;-71
2021/12/18 15:05:27;;;;;;;;;;;8.50;99.90;;;;;;5117415;27;19926;-71
2021/12/18 15:08:02;;;;;;;;;;;8.50;99.90;;;;;;5083177;28;20350;-71
2021/12/18 15:10:44;;;;;;;;;;;8.50;99.90;;;;;;5100551;27;19920;-72
2021/12/18 15:13:10;;;;;;;;;;;8.40;99.90;;;;;;5106204;27;19919;-71
2021/12/18 15:15:36;;;;;;;;;;;8.40;99.90;;;;;;5098709;27;19967;-71